Time;durP1;ratioP1;P1;durP2;ratioP2;P2;SDS_P1;SDS_P2;PMS_P1;PMS_P2;Temp;Humidity;BMP_temperature;BMP_pressure;BME280_temperature;BME280_humidity;BME280_pressure;Samples;Min_cycle;Max_cycle;Signal;HPM_P1;HPM_P2
2023/10/09 00:02:15;;;;;;;3.22;1.40;;;;;;;22.38;100.00;101624.44;4905268;29;20063;-51
2023/10/09 00:04:44;;;;;;;6.22;1.48;;;;;;;22.39;100.00;101617.50;4906538;29;20056;-48
2023/10/09 00:07:11;;;;;;;5.13;1.25;;;;;;;22.39;100.00;101614.69;4906310;29;20056;-51
2023/10/09 00:09:48;;;;;;;2.72;1.40;;;;;;;22.39;100.00;101614.69;4905737;29;20048;-46
2023/10/09 00:12:28;;;;;;;4.80;1.20;;;;;;;22.37;100.00;101614.38;4906187;29;20048;-48
2023/10/09 00:15:08;;;;;;;5.13;1.20;;;;;;;22.35;100.00;101622.56;4906990;29;20068;-47
2023/10/09 00:17:37;;;;;;;3.65;1.40;;;;;;;22.35;100.00;101612.03;4906076;29;20080;-49
2023/10/09 00:20:08;;;;;;;4.35;1.33;;;;;;;22.42;100.00;101610.88;4906889;29;20182;-47
2023/10/09 00:22:41;;;;;;;7.10;1.80;;;;;;;22.39;100.00;101609.00;4907203;29;20071;-47
2023/10/09 00:25:11;;;;;;;4.53;1.30;;;;;;;22.39;100.00;101603.34;4904016;29;20399;-48
2023/10/09 00:27:42;;;;;;;4.35;1.33;;;;;;;22.38;100.00;101594.06;4907726;29;20551;-49
2023/10/09 00:30:21;;;;;;;3.83;1.60;;;;;;;22.34;100.00;101595.50;4888147;29;20047;-48
2023/10/09 00:38:22;;;;;;;;;;;;;;;22.38;100.00;101576.28;4909308;29;20082;-46
2023/10/09 00:41:02;;;;;;;3.35;1.40;;;;;;;22.36;100.00;101579.59;4905812;29;20319;-48
2023/10/09 00:43:29;;;;;;;3.10;1.20;;;;;;;22.40;100.00;101585.06;4908764;29;20063;-49
2023/10/09 00:46:04;;;;;;;5.25;1.90;;;;;;;22.31;100.00;101580.22;4905755;29;20079;-48
2023/10/09 00:48:31;;;;;;;4.22;1.30;;;;;;;22.36;100.00;101581.63;4908878;29;20060;-48
2023/10/09 00:51:00;;;;;;;3.47;1.10;;;;;;;22.34;100.00;101578.50;4904776;29;20138;-47
2023/10/09 00:53:31;;;;;;;5.15;1.20;;;;;;;22.36;100.00;101581.63;4905813;29;20066;-46
2023/10/09 00:56:18;;;;;;;5.57;1.33;;;;;;;22.36;100.00;101575.97;4903740;29;20056;-49
2023/10/09 00:58:49;;;;;;;4.00;1.38;;;;;;;22.48;100.00;101569.31;4904805;29;20590;-50
2023/10/09 01:01:16;;;;;;;7.45;1.50;;;;;;;22.51;100.00;101562.69;4905261;29;20602;-48
2023/10/09 01:03:44;;;;;;;4.50;1.33;;;;;;;22.41;100.00;101553.44;4904951;29;20055;-47
2023/10/09 01:11:22;;;;;;;3.78;1.40;;;;;;;22.39;100.00;101560.84;4906409;29;23311;-49
2023/10/09 01:16:18;;;;;;;3.70;0.98;;;;;;;22.36;100.00;101562.59;4904555;29;20066;-48
2023/10/09 01:18:52;;;;;;;4.70;1.30;;;;;;;22.37;100.00;101563.38;4904952;29;20052;-48
2023/10/09 01:21:26;;;;;;;6.30;1.30;;;;;;;22.37;100.00;101569.06;4905570;29;20056;-48
2023/10/09 01:24:03;;;;;;;3.25;1.23;;;;;;;22.30;100.00;101570.16;4906692;29;20056;-48
2023/10/09 01:26:39;;;;;;;4.82;1.52;;;;;;;22.36;100.00;101561.81;4906419;29;20247;-48
2023/10/09 01:29:10;;;;;;;2.85;1.27;;;;;;;22.33;100.00;101559.91;4904256;29;20788;-48
2023/10/09 01:31:43;;;;;;;4.25;1.10;;;;;;;22.35;100.00;101566.69;4903592;29;20058;-47
2023/10/09 01:34:12;;;;;;;7.88;1.20;;;;;;;22.41;100.00;101572.50;4905940;29;20130;-49
2023/10/09 01:36:39;;;;;;;3.78;1.20;;;;;;;22.36;100.00;101559.75;4905476;29;20052;-47
2023/10/09 01:39:21;;;;;;;3.92;1.23;;;;;;;22.38;100.00;101560.09;4904214;29;20741;-48
2023/10/09 01:41:51;;;;;;;4.68;1.58;;;;;;;22.33;100.00;101555.06;4904157;29;20116;-47
2023/10/09 01:44:18;;;;;;;4.05;1.52;;;;;;;22.38;100.00;101556.44;4907335;29;20060;-46
2023/10/09 01:46:48;;;;;;;2.60;1.30;;;;;;;22.34;100.00;101562.28;4907176;29;20116;-47
2023/10/09 01:49:21;;;;;;;3.90;1.10;;;;;;;22.36;100.00;101559.75;4906429;29;20179;-47
2023/10/09 01:51:50;;;;;;;5.82;1.38;;;;;;;22.36;100.00;101561.81;4903893;29;20496;-48
2023/10/09 01:54:33;;;;;;;7.93;1.80;;;;;;;22.36;100.00;101558.97;4907537;29;20196;-50
2023/10/09 01:57:09;;;;;;;4.07;1.38;;;;;;;22.37;100.00;101564.16;4903601;29;20064;-47
2023/10/09 01:59:38;;;;;;;4.97;1.40;;;;;;;22.49;100.00;101554.66;4930099;29;20147;-48
2023/10/09 02:07:52;;;;;;;4.07;1.00;;;;;;;22.45;100.00;101548.41;4931273;29;20087;-47
2023/10/09 02:12:57;;;;;;;4.97;1.75;;;;;;;22.47;100.00;101556.41;4924343;29;20143;-48
2023/10/09 02:21:12;;;;;;;3.53;1.13;;;;;;;22.37;100.00;101544.31;4930336;29;20052;-47
2023/10/09 02:23:41;;;;;;;3.25;1.10;;;;;;;22.37;100.00;101535.81;4932351;29;20048;-49
2023/10/09 02:26:09;;;;;;;4.13;1.38;;;;;;;22.39;100.00;101541.00;4931884;29;20051;-47
2023/10/09 02:28:36;;;;;;;4.03;1.08;;;;;;;22.40;100.00;101534.88;4932517;29;20052;-48
2023/10/09 02:31:12;;;;;;;4.05;1.25;;;;;;;22.36;100.00;101542.75;4931360;29;20119;-50
2023/10/09 02:33:39;;;;;;;4.68;1.65;;;;;;;22.37;100.00;101537.91;4932176;29;20077;-49
2023/10/09 02:36:06;;;;;;;2.58;1.23;;;;;;;22.36;100.00;101539.94;4932042;29;20609;-49
2023/10/09 02:38:38;;;;;;;6.13;1.67;;;;;;;22.35;100.00;101541.22;4932098;29;20058;-48
2023/10/09 02:43:34;;;;;;;3.95;1.20;;;;;;;22.36;100.00;101533.47;4929897;29;20082;-48
2023/10/09 02:46:13;;;;;;;4.03;1.30;;;;;;;22.32;100.00;101527.19;4932005;29;20047;-48
2023/10/09 02:48:45;;;;;;;2.95;1.25;;;;;;;22.35;100.00;101523.41;4927742;29;20047;-47
2023/10/09 02:51:17;;;;;;;5.70;1.58;;;;;;;22.35;100.00;101521.38;4928718;29;20842;-48
2023/10/09 02:53:44;;;;;;;2.25;1.23;;;;;;;22.34;100.00;101530.34;4931798;29;20434;-49
2023/10/09 02:56:14;;;;;;;6.60;1.38;;;;;;;22.33;100.00;101523.09;4931297;29;20639;-47
2023/10/09 02:58:40;;;;;;;4.25;1.10;;;;;;;22.34;100.00;101510.53;4930788;29;20051;-48
2023/10/09 03:01:13;;;;;;;5.53;1.40;;;;;;;22.33;100.00;101509.72;4931539;29;20123;-48
2023/10/09 03:03:46;;;;;;;15.15;1.63;;;;;;;22.32;100.00;101508.16;4930011;29;20047;-48
2023/10/09 03:06:28;;;;;;;4.50;1.42;;;;;;;22.32;100.00;101513.84;4931402;29;20075;-48
2023/10/09 03:08:55;;;;;;;4.22;1.10;;;;;;;22.32;100.00;101511.00;4929231;29;20135;-49
2023/10/09 03:11:23;;;;;;;3.88;1.25;;;;;;;22.34;100.00;101524.69;4931277;29;20047;-48
2023/10/09 03:13:50;;;;;;;3.35;1.23;;;;;;;22.34;100.00;101516.94;4929711;29;20058;-48
2023/10/09 03:16:19;;;;;;;1.98;1.05;;;;;;;22.30;100.00;101519.19;4932162;29;20059;-47
2023/10/09 03:18:52;;;;;;;3.97;1.38;;;;;;;22.31;100.00;101515.06;4931056;29;20511;-48
2023/10/09 03:21:20;;;;;;;3.67;1.23;;;;;;;22.30;100.00;101505.00;4928297;29;20138;-48
2023/10/09 03:23:50;;;;;;;5.68;1.10;;;;;;;22.31;100.00;101500.16;4931100;29;20059;-47
2023/10/09 03:26:19;;;;;;;4.15;1.40;;;;;;;22.31;100.00;101508.66;4930813;29;20854;-48
2023/10/09 03:28:49;;;;;;;6.10;1.20;;;;;;;22.30;100.00;101499.34;4931643;29;20079;-49
2023/10/09 03:31:15;;;;;;;3.10;1.02;;;;;;;22.30;100.00;101493.69;4930520;29;20054;-49
2023/10/09 03:33:42;;;;;;;2.05;1.08;;;;;;;22.29;100.00;101499.81;4931016;29;20059;-48
2023/10/09 03:36:11;;;;;;;3.45;1.35;;;;;;;22.27;100.00;101477.63;4929926;29;20043;-48
2023/10/09 03:38:38;;;;;;;5.43;1.30;;;;;;;22.29;100.00;101477.13;4930500;29;20175;-50
2023/10/09 03:41:06;;;;;;;7.28;1.35;;;;;;;22.28;100.00;101464.25;4913829;29;20530;-47
2023/10/09 03:43:40;;;;;;;2.47;1.35;;;;;;;22.27;100.00;101474.03;4931390;29;20086;-48
2023/10/09 03:46:20;;;;;;;3.85;1.35;;;;;;;22.28;100.00;101470.72;4934464;29;20059;-49
2023/10/09 03:48:56;;;;;;;3.95;1.35;;;;;;;22.29;100.00;101471.47;4930041;29;20055;-47
2023/10/09 03:51:23;;;;;;;3.03;1.00;;;;;;;22.29;100.00;101465.81;4930406;29;20048;-49
2023/10/09 03:53:52;;;;;;;6.80;1.70;;;;;;;22.29;100.00;101460.16;4931049;29;20052;-48
2023/10/09 03:56:21;;;;;;;3.58;1.20;;;;;;;22.28;100.00;101458.59;4931189;29;20055;-49
2023/10/09 03:58:54;;;;;;;1.38;0.70;;;;;;;22.27;100.00;101460.63;4931074;29;20246;-51
2023/10/09 04:03:59;;;;;;;3.05;1.25;;;;;;;22.26;100.00;101449.78;4929494;29;20071;-48
2023/10/09 04:06:37;;;;;;;3.95;1.48;;;;;;;22.25;100.00;101454.66;4928812;29;20534;-50
2023/10/09 04:09:27;;;;;;;3.92;1.10;;;;;;;22.23;100.00;101454.34;4931323;29;20048;-48
2023/10/09 04:14:47;;;;;;;3.05;1.10;;;;;;;22.24;100.00;101446.66;4930425;29;20537;-49
2023/10/09 04:17:36;;;;;;;2.28;1.20;;;;;;;22.25;100.00;101439.72;4929752;29;20047;-49
2023/10/09 04:23:06;;;;;;;3.28;1.30;;;;;;;22.26;100.00;101450.56;4904484;29;20160;-49
2023/10/09 04:25:42;;;;;;;3.90;1.10;;;;;;;22.24;100.00;101458.00;4930912;29;20052;-49
2023/10/09 04:28:18;;;;;;;2.28;1.25;;;;;;;22.25;100.00;101453.88;4930082;29;20051;-49
2023/10/09 04:30:46;;;;;;;4.22;1.33;;;;;;;22.23;100.00;101445.06;4930487;29;20143;-49
2023/10/09 04:33:42;;;;;;;5.15;1.75;;;;;;;22.23;100.00;101445.84;4934198;29;20482;-46
2023/10/09 04:36:46;;;;;;;3.97;1.33;;;;;;;22.22;100.00;101437.84;4929092;29;20044;-48
2023/10/09 04:41:52;;;;;;;3.60;1.20;;;;;;;22.25;100.00;101443.34;4931060;29;20044;-47
2023/10/09 04:44:19;;;;;;;4.72;1.17;;;;;;;22.25;100.00;101451.03;4933322;29;20052;-47
2023/10/09 05:03:07;;;;;;;4.53;1.60;;;;;;;22.21;100.00;101445.56;4933603;29;20048;-50
2023/10/09 05:08:21;;;;;;;1.85;1.10;;;;;;;22.22;100.00;101455.63;4933958;29;20055;-50
2023/10/09 05:16:54;;;;;;;7.28;1.35;;;;;;;22.22;100.00;101474.66;4927812;29;20055;-47
2023/10/09 05:19:28;;;;;;;5.75;1.40;;;;;;;22.21;100.00;101476.72;4923666;29;20047;-48
2023/10/09 05:21:58;;;;;;;2.22;1.17;;;;;;;22.22;100.00;101471.84;4933000;29;20067;-48
2023/10/09 05:24:27;;;;;;;2.08;0.98;;;;;;;22.18;100.00;101478.44;4933737;29;20110;-47
2023/10/09 05:27:17;;;;;;;2.58;1.25;;;;;;;22.18;100.00;101477.69;4934285;29;20064;-47
2023/10/09 05:29:59;;;;;;;3.55;1.30;;;;;;;22.22;100.00;101497.31;4935352;29;20106;-48
2023/10/09 05:32:35;;;;;;;2.25;1.35;;;;;;;22.20;100.00;101505.53;4934571;29;20043;-48
2023/10/09 05:37:33;;;;;;;3.58;1.30;;;;;;;22.21;100.00;101521.25;4932336;29;20071;-48
2023/10/09 05:48:06;;;;;;;2.85;1.23;;;;;;;22.19;100.00;101487.75;4933133;29;20071;-47
2023/10/09 05:51:10;;;;;;;2.72;1.23;;;;;;;22.16;100.00;101494.38;4930673;29;20159;-49
2023/10/09 06:04:18;;;;;;;3.55;1.23;;;;;;;22.20;100.00;101528.19;4931475;29;20519;-47
2023/10/09 06:06:46;;;;;;;3.95;1.48;;;;;;;22.27;100.00;101537.09;4932525;29;20122;-48
2023/10/09 06:11:49;;;;;;;6.55;1.17;;;;;;;22.27;100.00;101539.94;4931330;29;20506;-49
2023/10/09 06:14:25;;;;;;;5.32;1.33;;;;;;;22.26;100.00;101538.38;4930371;29;20134;-47
2023/10/09 06:17:15;;;;;;;;;;;;;;;22.24;100.00;101537.28;4934137;29;20458;-47
2023/10/09 06:19:44;;;;;;;1.88;1.05;;;;;;;22.23;100.00;101547.03;4913506;29;19986;-46
2023/10/09 06:24:57;;;;;;;4.85;1.20;;;;;;;22.23;100.00;101541.38;4913800;29;21242;-48
2023/10/09 06:27:56;;;;;;;3.58;1.27;;;;;;;22.21;100.00;101543.91;4925926;29;20403;-48
2023/10/09 06:35:32;;;;;;;5.57;1.80;;;;;;;22.20;100.00;101531.78;4913275;29;20059;-49
2023/10/09 06:45:55;;;;;;;3.85;1.40;;;;;;;22.22;100.00;101563.25;4916493;29;20139;-49
2023/10/09 06:58:57;;;;;;;2.78;1.15;;;;;;;22.24;100.00;101528.78;4923465;29;20462;-49
2023/10/09 07:04:18;;;;;;;9.30;1.90;;;;;;;22.26;100.00;101540.41;4931933;29;20054;-49
2023/10/09 07:17:21;;;;;;;15.30;2.50;;;;;;;22.24;100.00;101562.78;4918028;29;20058;-49
2023/10/09 07:24:49;;;;;;;18.02;2.65;;;;;;;22.30;100.00;101587.16;4931635;29;20066;-48
2023/10/09 07:27:43;;;;;;;18.00;2.42;;;;;;;22.31;100.00;101593.63;4931720;29;20082;-48
2023/10/09 07:32:54;;;;;;;13.60;2.75;;;;;;;22.23;100.00;101572.53;4929387;29;20051;-47
2023/10/09 07:38:08;;;;;;;14.52;3.15;;;;;;;22.25;100.00;101513.34;4931174;29;20055;-47
2023/10/09 07:43:38;;;;;;;8.10;2.10;;;;;;;22.26;100.00;101518.53;4926301;29;20055;-45
2023/10/09 07:46:30;;;;;;;21.02;2.47;;;;;;;22.23;100.00;101524.38;4931516;29;20055;-47
2023/10/09 07:49:21;;;;;;;21.65;2.40;;;;;;;22.23;100.00;101528.00;4931278;29;20063;-48
2023/10/09 07:51:47;;;;;;;5.65;1.90;;;;;;;22.17;100.00;101518.56;4930617;29;20589;-47
2023/10/09 07:54:14;;;;;;;6.63;1.63;;;;;;;22.20;100.00;101542.34;4930378;29;20126;-47
2023/10/09 07:56:46;;;;;;;6.90;1.80;;;;;;;22.21;100.00;101544.72;4931038;29;20056;-47
2023/10/09 07:59:14;;;;;;;11.75;2.40;;;;;;;22.20;100.00;101559.34;4931331;29;20051;-48
2023/10/09 08:01:54;;;;;;;6.65;2.28;;;;;;;22.21;100.00;101569.41;4930531;29;20111;-49
2023/10/09 08:04:37;;;;;;;10.63;2.22;;;;;;;22.19;100.00;101569.88;4931036;29;20051;-48
2023/10/09 08:07:07;;;;;;;8.77;2.35;;;;;;;22.17;100.00;101567.53;4934955;28;20153;-47
2023/10/09 08:12:57;;;;;;;6.30;2.03;;;;;;;22.15;100.00;101574.94;4934665;29;20099;-48
2023/10/09 08:16:17;;;;;;;11.02;2.50;;;;;;;22.22;100.00;101573.78;4933259;29;20138;-48
2023/10/09 08:18:27;;;;;;;10.35;1.90;;;;;;;22.15;100.00;101574.94;4922615;29;20425;-48
2023/10/09 08:23:33;;;;;;;10.45;3.40;;;;;;;22.11;100.00;101594.91;4934638;29;20054;-48
2023/10/09 08:26:16;;;;;;;15.30;3.60;;;;;;;22.13;100.00;101577.44;4925082;29;20079;-48
2023/10/09 08:28:45;;;;;;;12.05;2.78;;;;;;;22.09;100.00;101579.66;4931625;29;20495;-49
2023/10/09 08:33:58;;;;;;;13.18;2.58;;;;;;;22.17;100.00;101597.09;4928007;29;20143;-48
2023/10/09 08:36:28;;;;;;;10.57;2.63;;;;;;;22.20;100.00;101607.50;4933632;29;20051;-50
2023/10/09 08:38:59;;;;;;;11.50;2.33;;;;;;;22.23;100.00;101600.84;4932076;29;20079;-48
2023/10/09 08:41:29;;;;;;;9.68;2.53;;;;;;;22.20;100.00;101599.75;4932291;29;20051;-48
2023/10/09 08:43:57;;;;;;;13.70;3.08;;;;;;;22.21;100.00;101587.19;4932727;29;20051;-49
2023/10/09 08:46:29;;;;;;;11.25;3.00;;;;;;;22.23;100.00;101572.53;4932936;29;20483;-48
2023/10/09 08:49:03;;;;;;;8.73;2.50;;;;;;;22.23;100.00;101538.53;4932868;29;20079;-50
2023/10/09 08:51:32;;;;;;;5.03;2.33;;;;;;;22.24;100.00;101506.91;4933121;29;20051;-48
2023/10/09 08:53:59;;;;;;;9.68;2.47;;;;;;;22.24;100.00;101503.31;4932005;29;20051;-48
2023/10/09 08:56:25;;;;;;;9.95;3.00;;;;;;;22.27;100.00;101525.00;4928502;29;20528;-47
2023/10/09 08:58:54;;;;;;;9.20;2.70;;;;;;;22.28;100.00;101526.56;4932187;29;20059;-48
2023/10/09 09:01:21;;;;;;;8.00;2.30;;;;;;;22.26;100.00;101529.09;4930281;29;20063;-49
2023/10/09 09:03:50;;;;;;;6.35;2.33;;;;;;;22.27;100.00;101505.94;4930110;29;20106;-48
2023/10/09 09:06:20;;;;;;;8.80;2.38;;;;;;;22.27;100.00;101494.63;4932263;29;20052;-48
2023/10/09 09:08:47;;;;;;;6.88;2.20;;;;;;;22.29;100.00;101479.97;4932393;29;20062;-47
2023/10/09 09:11:23;;;;;;;6.70;2.20;;;;;;;22.27;100.00;101471.97;4931047;29;20149;-47
2023/10/09 09:13:53;;;;;;;7.97;2.17;;;;;;;22.29;100.00;101477.13;4931137;29;20066;-47
2023/10/09 09:16:22;;;;;;;6.25;2.35;;;;;;;22.30;100.00;101479.53;4932828;29;20047;-48
2023/10/09 09:19:00;;;;;;;7.72;2.65;;;;;;;22.30;100.00;101478.72;4929889;29;20100;-48
2023/10/09 09:21:28;;;;;;;5.50;2.20;;;;;;;22.31;100.00;101485.97;4927314;29;20812;-49
2023/10/09 09:24:01;;;;;;;5.80;2.50;;;;;;;22.30;100.00;101501.38;4930187;29;20507;-50
2023/10/09 09:26:44;;;;;;;6.95;2.42;;;;;;;22.29;100.00;101489.25;4934827;29;20151;-49
2023/10/09 09:29:18;;;;;;;10.85;3.88;;;;;;;22.25;100.00;101487.88;4926001;29;20139;-46
2023/10/09 09:32:06;;;;;;;7.50;3.05;;;;;;;22.22;100.00;101483.94;4928827;29;20135;-49
2023/10/09 09:34:54;;;;;;;11.52;3.97;;;;;;;22.25;100.00;101471.66;4931763;29;20060;-49
2023/10/09 09:37:28;;;;;;;13.73;4.18;;;;;;;22.23;100.00;101474.19;4931835;29;20066;-48
2023/10/09 09:40:14;;;;;;;11.63;4.20;;;;;;;22.17;100.00;101476.91;4932983;29;20119;-47
2023/10/09 09:42:50;;;;;;;14.23;4.43;;;;;;;22.11;100.00;101501.47;4931995;29;20108;-49
2023/10/09 09:45:17;;;;;;;18.45;5.22;;;;;;;22.14;100.00;101516.69;4931257;29;20063;-47
2023/10/09 09:47:51;;;;;;;15.68;4.18;;;;;;;22.22;100.00;101534.13;4927728;29;20090;-47
2023/10/09 09:50:29;;;;;;;18.73;5.72;;;;;;;22.24;100.00;101542.97;4932073;29;20056;-48
2023/10/09 09:52:56;;;;;;;12.90;3.15;;;;;;;22.24;100.00;101554.28;4923992;29;20428;-49
2023/10/09 09:55:32;;;;;;;16.83;3.15;;;;;;;22.29;100.00;101559.28;4932073;29;20411;-49
2023/10/09 09:58:01;;;;;;;12.15;3.70;;;;;;;22.22;100.00;101551.94;4925751;29;20051;-46
2023/10/09 10:03:16;;;;;;;11.68;4.57;;;;;;;22.21;100.00;101550.38;4926422;29;20048;-48
2023/10/09 10:05:46;;;;;;;;;;;;;;;22.24;100.00;101555.06;4931999;29;20537;-46
2023/10/09 10:08:32;;;;;;;16.33;3.83;;;;;;;22.22;100.00;101563.25;4929123;29;19927;-46
2023/10/09 10:11:05;;;;;;;18.40;3.70;;;;;;;22.23;100.00;101558.34;4923505;29;20055;-49
2023/10/09 10:13:41;;;;;;;10.70;3.28;;;;;;;22.25;100.00;101558.69;4930598;29;20043;-46
2023/10/09 10:16:20;;;;;;;9.40;3.63;;;;;;;22.26;100.00;101557.41;4921752;29;20056;-49
2023/10/09 10:19:00;;;;;;;9.45;3.38;;;;;;;22.24;100.00;101554.28;4930954;29;20050;-48
2023/10/09 10:24:09;;;;;;;9.43;3.75;;;;;;;22.26;100.00;101546.06;4927601;29;20082;-49
2023/10/09 10:26:36;;;;;;;13.60;3.70;;;;;;;22.26;100.00;101546.88;4932364;29;20111;-48
2023/10/09 10:29:33;;;;;;;7.90;2.95;;;;;;;22.26;100.00;101543.25;4929970;29;20051;-46
2023/10/09 10:32:08;;;;;;;8.43;3.08;;;;;;;22.26;100.00;101548.91;4929584;29;20490;-50
2023/10/09 10:34:55;;;;;;;7.70;3.38;;;;;;;22.27;100.00;101542.00;4931249;29;20050;-50
2023/10/09 10:37:51;;;;;;;9.68;3.50;;;;;;;22.26;100.00;101549.72;4931358;29;20142;-49
2023/10/09 10:40:46;;;;;;;8.63;3.15;;;;;;;22.25;100.00;101545.31;4911639;29;20056;-49
2023/10/09 10:44:33;;;;;;;12.80;3.73;;;;;;;22.29;100.00;101545.13;4925707;29;20043;-49
2023/10/09 10:46:30;;;;;;;7.93;3.05;;;;;;;22.30;100.00;101550.34;4921778;29;20675;-48
2023/10/09 10:49:10;;;;;;;10.45;3.15;;;;;;;22.27;100.00;101556.16;4912840;29;20052;-48
2023/10/09 10:51:38;;;;;;;10.25;3.63;;;;;;;22.29;100.00;101545.91;4927633;29;20582;-50
2023/10/09 10:56:52;;;;;;;11.63;3.40;;;;;;;22.31;100.00;101554.72;4931546;29;20193;-48
2023/10/09 10:59:28;;;;;;;7.43;2.97;;;;;;;22.31;100.00;101560.41;4929103;29;20052;-48
2023/10/09 11:07:06;;;;;;;10.05;3.15;;;;;;;22.33;100.00;101563.56;4920303;29;20051;-49
2023/10/09 11:12:44;;;;;;;8.48;2.88;;;;;;;22.39;100.00;101560.84;4927310;29;20416;-49
2023/10/09 11:26:21;;;;;;;11.25;3.25;;;;;;;22.41;100.00;101566.84;4928931;29;20083;-48
2023/10/09 11:29:13;;;;;;;14.05;3.90;;;;;;;22.39;100.00;101563.69;4933459;29;20090;-48
2023/10/09 11:31:45;;;;;;;6.88;2.60;;;;;;;22.39;100.00;101564.47;4924119;29;20051;-47
2023/10/09 11:34:37;;;;;;;8.90;3.45;;;;;;;22.34;100.00;101570.00;4925915;29;20044;-49
2023/10/09 11:37:38;;;;;;;11.57;3.40;;;;;;;22.36;100.00;101570.31;4925840;29;20056;-48
2023/10/09 11:40:23;;;;;;;13.15;3.47;;;;;;;22.42;100.00;101571.22;4923114;29;20044;-45
2023/10/09 11:42:50;;;;;;;11.50;4.32;;;;;;;22.41;100.00;101558.34;4926811;29;20075;-46
2023/10/09 11:45:28;;;;;;;19.70;5.20;;;;;;;22.31;100.00;101557.56;4928518;29;20047;-47
2023/10/09 11:47:57;;;;;;;13.35;4.13;;;;;;;22.34;100.00;101559.44;4924777;29;20107;-46
2023/10/09 11:55:52;;;;;;;13.20;5.50;;;;;;;22.56;100.00;101547.84;4926474;29;20059;-45
2023/10/09 11:58:23;;;;;;;11.48;4.90;;;;;;;22.57;100.00;101540.91;4922632;29;20430;-49
2023/10/09 12:00:56;;;;;;;12.55;5.25;;;;;;;22.55;100.00;101541.41;4928546;29;20050;-47
2023/10/09 12:03:29;;;;;;;12.32;5.60;;;;;;;22.45;100.00;101542.72;4921222;29;20062;-47
2023/10/09 12:06:04;;;;;;;13.13;5.40;;;;;;;22.44;100.00;101537.53;4920746;29;20408;-45
2023/10/09 12:08:34;;;;;;;15.73;5.88;;;;;;;22.42;100.00;101543.69;4915828;29;20048;-46
2023/10/09 12:11:08;;;;;;;16.73;6.82;;;;;;;22.35;100.00;101549.72;4924874;29;20047;-47
2023/10/09 12:13:35;;;;;;;17.42;7.32;;;;;;;22.32;100.00;101553.50;4924184;29;20052;-45
2023/10/09 12:16:07;;;;;;;19.58;6.90;;;;;;;22.27;100.00;101537.09;4926909;29;20062;-47
2023/10/09 12:18:34;;;;;;;13.98;6.13;;;;;;;22.26;100.00;101546.06;4934067;29;20536;-47
2023/10/09 12:21:04;;;;;;;18.23;7.40;;;;;;;22.32;100.00;101539.31;4926816;29;20108;-47
2023/10/09 12:23:35;;;;;;;19.05;7.68;;;;;;;22.35;100.00;101546.06;4924186;29;20062;-47
2023/10/09 12:26:03;;;;;;;17.85;7.38;;;;;;;22.44;100.00;101537.53;4918777;29;20054;-46
2023/10/09 12:28:32;;;;;;;18.08;6.50;;;;;;;22.45;100.00;101545.56;4922385;29;20059;-47
2023/10/09 12:31:02;;;;;;;19.00;6.60;;;;;;;22.49;100.00;101553.88;4919826;29;20074;-48
2023/10/09 12:33:29;;;;;;;20.65;6.30;;;;;;;22.53;100.00;101548.81;4928931;29;20103;-47
2023/10/09 12:35:59;;;;;;;16.90;5.90;;;;;;;22.56;100.00;101554.31;4923162;29;20138;-49
2023/10/09 12:38:31;;;;;;;15.70;5.35;;;;;;;22.54;100.00;101556.06;4929993;29;20063;-49
2023/10/09 12:41:19;;;;;;;17.63;5.65;;;;;;;22.52;100.00;101558.59;4929095;29;20063;-48
2023/10/09 12:43:47;;;;;;;13.57;5.20;;;;;;;22.53;100.00;101558.09;4927319;29;20553;-46
2023/10/09 12:46:16;;;;;;;18.25;5.70;;;;;;;22.52;100.00;101552.91;4924177;29;20048;-49
2023/10/09 12:48:47;;;;;;;18.00;6.20;;;;;;;22.49;100.00;101559.53;4919255;29;20044;-49
2023/10/09 12:51:18;;;;;;;18.38;6.18;;;;;;;22.44;100.00;101554.53;4927836;29;20080;-46
2023/10/09 12:53:46;;;;;;;19.05;6.65;;;;;;;22.44;100.00;101557.38;4926909;29;20055;-49
2023/10/09 12:56:12;;;;;;;17.45;6.07;;;;;;;22.43;100.00;101547.28;4931441;29;20103;-49
2023/10/09 12:58:39;;;;;;;16.75;5.82;;;;;;;22.52;100.00;101548.03;4932553;29;20146;-46
2023/10/09 13:01:09;;;;;;;17.83;6.75;;;;;;;22.44;100.00;101543.22;4932132;29;20142;-46
2023/10/09 13:03:39;;;;;;;18.02;6.18;;;;;;;22.50;100.00;101558.25;4928330;29;20507;-47
2023/10/09 13:06:10;;;;;;;16.77;6.00;;;;;;;22.45;100.00;101542.72;4932486;29;20059;-49
2023/10/09 13:08:40;;;;;;;15.70;6.15;;;;;;;22.51;100.00;101543.63;4929322;29;20055;-49
2023/10/09 13:11:12;;;;;;;15.13;4.97;;;;;;;22.49;100.00;101553.88;4930537;29;20573;-49
2023/10/09 13:13:40;;;;;;;13.93;4.63;;;;;;;22.55;100.00;101549.13;4930663;29;20054;-48
2023/10/09 13:16:24;;;;;;;13.30;5.07;;;;;;;22.48;100.00;101533.25;4930773;29;20054;-48
2023/10/09 13:19:09;;;;;;;15.30;5.25;;;;;;;22.50;100.00;101539.22;4931256;29;20119;-47
2023/10/09 13:21:40;;;;;;;15.97;5.47;;;;;;;22.52;100.00;101541.59;4932064;29;20081;-47
2023/10/09 13:24:13;;;;;;;12.90;4.50;;;;;;;22.49;100.00;101542.53;4930356;29;20454;-48
2023/10/09 13:26:41;;;;;;;10.80;4.55;;;;;;;22.51;100.00;101542.84;4931830;29;20091;-47
2023/10/09 13:29:11;;;;;;;16.33;5.00;;;;;;;22.54;100.00;101539.06;4929899;29;20162;-48
2023/10/09 13:31:46;;;;;;;17.55;5.25;;;;;;;22.53;100.00;101537.47;4927513;29;20062;-48
2023/10/09 13:34:16;;;;;;;13.35;4.45;;;;;;;22.53;100.00;101537.47;4929618;29;20079;-48
2023/10/09 13:37:11;;;;;;;12.75;4.82;;;;;;;22.55;100.00;101537.78;4931905;29;20044;-46
2023/10/09 13:39:38;;;;;;;15.55;4.88;;;;;;;22.55;100.00;101537.78;4930204;29;20052;-46
2023/10/09 13:42:07;;;;;;;16.17;5.18;;;;;;;22.54;100.00;101545.50;4929430;29;20055;-46
2023/10/09 13:44:34;;;;;;;21.70;5.95;;;;;;;22.48;100.00;101538.91;4928540;29;20051;-47
2023/10/09 13:47:05;;;;;;;15.18;6.13;;;;;;;22.54;100.00;101533.41;4922392;29;20649;-47
2023/10/09 13:49:33;;;;;;;21.88;8.65;;;;;;;22.48;100.00;101524.75;4923561;29;20051;-47
2023/10/09 13:52:02;;;;;;;25.13;9.13;;;;;;;22.50;100.00;101529.94;4922423;29;20052;-46
2023/10/09 13:57:03;;;;;;;18.23;6.53;;;;;;;22.50;100.00;101529.94;4928541;29;20056;-47
2023/10/09 13:59:31;;;;;;;19.08;6.50;;;;;;;22.53;100.00;101521.25;4920525;29;20056;-47
2023/10/09 14:01:59;;;;;;;14.38;6.45;;;;;;;22.56;100.00;101528.00;4936430;29;20052;-49
2023/10/09 14:04:26;;;;;;;19.38;6.43;;;;;;;22.54;100.00;101533.41;4926707;29;20107;-48
2023/10/09 14:06:56;;;;;;;15.18;6.50;;;;;;;22.53;100.00;101521.25;4921366;29;20737;-47
2023/10/09 14:09:30;;;;;;;15.85;5.43;;;;;;;22.52;100.00;101525.38;4921458;29;20048;-47
2023/10/09 14:12:09;;;;;;;16.65;5.68;;;;;;;22.58;100.00;101529.09;4929643;29;20055;-47
2023/10/09 14:14:46;;;;;;;16.27;6.05;;;;;;;22.58;100.00;101531.16;4924599;29;20418;-47
2023/10/09 14:17:23;;;;;;;14.25;5.75;;;;;;;22.59;100.00;101525.00;4926363;29;20051;-46
2023/10/09 14:19:51;;;;;;;13.60;5.22;;;;;;;22.57;100.00;101533.19;4923098;29;20043;-47
2023/10/09 14:22:20;;;;;;;13.13;4.85;;;;;;;22.56;100.00;101528.00;4909378;29;20062;-48
2023/10/09 14:24:55;;;;;;;12.18;5.15;;;;;;;22.57;100.00;101519.03;4923685;29;20052;-47
2023/10/09 14:27:26;;;;;;;20.92;6.40;;;;;;;22.45;100.00;101522.09;4930708;29;20051;-46
2023/10/09 14:29:56;;;;;;;16.80;7.57;;;;;;;22.49;100.00;101525.53;4929178;29;20099;-49
2023/10/09 14:32:28;;;;;;;17.10;6.90;;;;;;;22.41;100.00;101522.25;4925326;29;20063;-48
2023/10/09 14:35:00;;;;;;;19.95;6.80;;;;;;;22.45;100.00;101522.09;4924740;29;20511;-48
2023/10/09 14:37:27;;;;;;;16.13;6.53;;;;;;;22.46;100.00;101526.50;4931359;29;20055;-49
2023/10/09 14:39:56;;;;;;;19.33;7.10;;;;;;;22.45;100.00;101519.28;4928168;29;20074;-47
2023/10/09 14:42:27;;;;;;;23.13;8.60;;;;;;;22.36;100.00;101530.63;4928489;29;20466;-49
2023/10/09 14:44:55;;;;;;;19.27;8.82;;;;;;;22.27;100.00;101522.94;4925785;29;20423;-48
2023/10/09 14:47:22;;;;;;;22.42;8.70;;;;;;;22.25;100.00;101517.00;4930121;29;20050;-47
2023/10/09 14:49:49;;;;;;;19.05;7.97;;;;;;;22.21;100.00;101509.91;4928941;29;20126;-48